sensor_id;sensor_type;location;lat;lon;timestamp;pressure;altitude;pressure_sealevel;temperature;humidity
61682;BME280;47577;43.610;25.010;2023-02-18T00:02:12;101040.94;;;7.52;51.39
61682;BME280;47577;43.610;25.010;2023-02-18T00:04:38;101049.75;;;7.51;51.49
61682;BME280;47577;43.610;25.010;2023-02-18T00:07:03;101048.00;;;7.52;51.45
61682;BME280;47577;43.610;25.010;2023-02-18T00:09:29;101038.34;;;7.47;50.89
61682;BME280;47577;43.610;25.010;2023-02-18T00:11:55;101044.47;;;7.49;51.38
61682;BME280;47577;43.610;25.010;2023-02-18T00:14:20;101029.56;;;7.44;50.84
61682;BME280;47577;43.610;25.010;2023-02-18T00:16:47;101035.75;;;7.43;50.59
61682;BME280;47577;43.610;25.010;2023-02-18T00:19:16;101035.75;;;7.40;51.80
61682;BME280;47577;43.610;25.010;2023-02-18T00:21:43;101029.63;;;7.36;51.10
61682;BME280;47577;43.610;25.010;2023-02-18T00:24:12;101026.09;;;7.37;51.25
61682;BME280;47577;43.610;25.010;2023-02-18T00:26:40;101028.75;;;7.39;50.76
61682;BME280;47577;43.610;25.010;2023-02-18T00:29:05;101019.94;;;7.33;51.59
61682;BME280;47577;43.610;25.010;2023-02-18T00:31:33;101014.66;;;7.33;51.60
61682;BME280;47577;43.610;25.010;2023-02-18T00:34:00;101016.41;;;7.38;51.00
61682;BME280;47577;43.610;25.010;2023-02-18T00:36:26;101005.00;;;7.32;50.88
61682;BME280;47577;43.610;25.010;2023-02-18T00:38:57;101012.88;;;7.39;51.16
61682;BME280;47577;43.610;25.010;2023-02-18T00:41:26;101014.66;;;7.35;51.04
61682;BME280;47577;43.610;25.010;2023-02-18T00:43:53;101000.59;;;7.31;51.32
61682;BME280;47577;43.610;25.010;2023-02-18T00:46:19;101003.19;;;7.36;51.15
61682;BME280;47577;43.610;25.010;2023-02-18T00:48:45;100998.78;;;7.33;51.01
61682;BME280;47577;43.610;25.010;2023-02-18T00:51:11;100997.91;;;7.33;51.13
61682;BME280;47577;43.610;25.010;2023-02-18T00:53:38;100985.56;;;7.33;50.40
61682;BME280;47577;43.610;25.010;2023-02-18T00:56:04;100981.25;;;7.26;50.75
61682;BME280;47577;43.610;25.010;2023-02-18T00:58:31;100989.06;;;7.37;50.18
61682;BME280;47577;43.610;25.010;2023-02-18T01:00:56;100971.47;;;7.31;50.73
61682;BME280;47577;43.610;25.010;2023-02-18T01:03:23;100977.56;;;7.38;50.00
61682;BME280;47577;43.610;25.010;2023-02-18T01:05:50;100975.00;;;7.32;50.16
61682;BME280;47577;43.610;25.010;2023-02-18T01:08:16;100963.50;;;7.35;50.31
61682;BME280;47577;43.610;25.010;2023-02-18T01:10:44;100954.72;;;7.34;50.44
61682;BME280;47577;43.610;25.010;2023-02-18T01:13:11;100952.94;;;7.33;50.00
61682;BME280;47577;43.610;25.010;2023-02-18T01:15:41;100952.91;;;7.36;50.22
61682;BME280;47577;43.610;25.010;2023-02-18T01:18:07;100940.59;;;7.33;50.46
61682;BME280;47577;43.610;25.010;2023-02-18T01:20:37;100930.13;;;7.26;50.05
61682;BME280;47577;43.610;25.010;2023-02-18T01:23:03;100925.75;;;7.20;50.28
61682;BME280;47577;43.610;25.010;2023-02-18T01:25:30;100930.13;;;7.24;50.15
61682;BME280;47577;43.610;25.010;2023-02-18T01:27:56;100930.16;;;7.23;50.26
61682;BME280;47577;43.610;25.010;2023-02-18T01:30:21;100931.75;;;7.36;49.36
61682;BME280;47577;43.610;25.010;2023-02-18T01:32:47;100928.97;;;7.48;48.70
61682;BME280;47577;43.610;25.010;2023-02-18T01:35:15;100929.63;;;7.63;47.88
61682;BME280;47577;43.610;25.010;2023-02-18T01:37:41;100932.94;;;7.80;48.37
61682;BME280;47577;43.610;25.010;2023-02-18T01:40:10;100930.28;;;7.82;47.60
61682;BME280;47577;43.610;25.010;2023-02-18T01:42:36;100924.84;;;7.91;47.36
61682;BME280;47577;43.610;25.010;2023-02-18T01:48:15;100911.59;;;7.91;46.95
61682;BME280;47577;43.610;25.010;2023-02-18T01:50:48;100912.38;;;7.99;46.24
61682;BME280;47577;43.610;25.010;2023-02-18T01:53:19;100914.09;;;8.03;47.19
61682;BME280;47577;43.610;25.010;2023-02-18T01:55:47;100930.78;;;8.09;47.28
61682;BME280;47577;43.610;25.010;2023-02-18T01:58:14;100920.03;;;8.18;47.17
61682;BME280;47577;43.610;25.010;2023-02-18T02:00:40;100920.09;;;8.15;46.20
61682;BME280;47577;43.610;25.010;2023-02-18T02:03:06;100923.63;;;8.15;47.44
61682;BME280;47577;43.610;25.010;2023-02-18T02:05:33;100918.22;;;8.21;48.07
61682;BME280;47577;43.610;25.010;2023-02-18T02:08:00;100911.22;;;8.17;46.26
61682;BME280;47577;43.610;25.010;2023-02-18T02:16:42;100911.91;;;8.29;46.10
61682;BME280;47577;43.610;25.010;2023-02-18T02:24:51;100908.19;;;8.40;45.08
61682;BME280;47577;43.610;25.010;2023-02-18T02:35:53;100894.31;;;8.77;45.33
61682;BME280;47577;43.610;25.010;2023-02-18T02:38:36;100884.59;;;8.78;44.50
61682;BME280;47577;43.610;25.010;2023-02-18T02:46:30;100871.34;;;8.78;43.96
61682;BME280;47577;43.610;25.010;2023-02-18T02:51:32;100877.50;;;8.80;44.06
61682;BME280;47577;43.610;25.010;2023-02-18T02:56:40;100865.97;;;8.81;44.92
61682;BME280;47577;43.610;25.010;2023-02-18T02:59:09;100866.84;;;8.82;44.36
61682;BME280;47577;43.610;25.010;2023-02-18T03:09:59;100889.00;;;8.77;44.16
61682;BME280;47577;43.610;25.010;2023-02-18T03:15:45;100903.44;;;8.63;46.42
61682;BME280;47577;43.610;25.010;2023-02-18T03:18:42;100902.63;;;8.59;45.89
61682;BME280;47577;43.610;25.010;2023-02-18T03:21:11;100891.09;;;8.60;45.54
61682;BME280;47577;43.610;25.010;2023-02-18T03:24:29;100896.28;;;8.66;45.71
61682;BME280;47577;43.610;25.010;2023-02-18T03:26:40;100886.03;;;8.48;46.51
61682;BME280;47577;43.610;25.010;2023-02-18T03:29:08;100897.31;;;8.59;45.68
61682;BME280;47577;43.610;25.010;2023-02-18T03:31:36;100884.22;;;8.50;45.96
61682;BME280;47577;43.610;25.010;2023-02-18T03:34:10;100892.97;;;8.53;45.24
61682;BME280;47577;43.610;25.010;2023-02-18T03:36:37;100870.06;;;8.51;45.62
61682;BME280;47577;43.610;25.010;2023-02-18T03:39:09;100879.94;;;8.41;46.08
61682;BME280;47577;43.610;25.010;2023-02-18T03:41:36;100886.00;;;8.49;46.63
61682;BME280;47577;43.610;25.010;2023-02-18T03:44:05;100854.13;;;8.52;46.18
61682;BME280;47577;43.610;25.010;2023-02-18T03:46:31;100863.69;;;8.61;47.15
61682;BME280;47577;43.610;25.010;2023-02-18T03:48:58;100868.13;;;8.60;45.73
61682;BME280;47577;43.610;25.010;2023-02-18T03:51:24;100873.31;;;8.67;45.31
61682;BME280;47577;43.610;25.010;2023-02-18T03:53:50;100884.75;;;8.70;46.39
61682;BME280;47577;43.610;25.010;2023-02-18T03:56:16;100896.06;;;8.80;46.07
61682;BME280;47577;43.610;25.010;2023-02-18T03:58:42;100886.31;;;8.81;46.28
61682;BME280;47577;43.610;25.010;2023-02-18T04:01:07;100893.41;;;8.80;46.40
61682;BME280;47577;43.610;25.010;2023-02-18T04:03:33;100885.59;;;8.71;47.75
61682;BME280;47577;43.610;25.010;2023-02-18T04:05:59;100886.38;;;8.76;46.13
61682;BME280;47577;43.610;25.010;2023-02-18T04:08:24;100865.38;;;8.67;47.04
61682;BME280;47577;43.610;25.010;2023-02-18T04:10:50;100879.31;;;8.78;47.89
61682;BME280;47577;43.610;25.010;2023-02-18T04:13:16;100866.16;;;8.72;47.00
61682;BME280;47577;43.610;25.010;2023-02-18T04:15:43;100870.63;;;8.70;47.90
61682;BME280;47577;43.610;25.010;2023-02-18T04:18:09;100871.47;;;8.72;47.71
61682;BME280;47577;43.610;25.010;2023-02-18T04:20:35;100846.88;;;8.64;47.59
61682;BME280;47577;43.610;25.010;2023-02-18T04:23:02;100853.75;;;8.72;47.49
61682;BME280;47577;43.610;25.010;2023-02-18T04:25:28;100836.09;;;8.71;47.29
61682;BME280;47577;43.610;25.010;2023-02-18T04:27:54;100857.78;;;8.93;45.69
61682;BME280;47577;43.610;25.010;2023-02-18T04:30:19;100855.03;;;8.98;45.64
61682;BME280;47577;43.610;25.010;2023-02-18T04:32:45;100845.16;;;9.05;46.33
61682;BME280;47577;43.610;25.010;2023-02-18T04:35:11;100835.47;;;9.04;46.12
61682;BME280;47577;43.610;25.010;2023-02-18T04:37:36;100834.66;;;9.00;47.55
61682;BME280;47577;43.610;25.010;2023-02-18T04:40:02;100837.34;;;8.99;46.47
61682;BME280;47577;43.610;25.010;2023-02-18T04:42:28;100830.28;;;8.99;46.18
61682;BME280;47577;43.610;25.010;2023-02-18T04:44:54;100825.84;;;8.98;47.02
61682;BME280;47577;43.610;25.010;2023-02-18T04:47:19;100824.03;;;9.00;47.74
61682;BME280;47577;43.610;25.010;2023-02-18T04:49:45;100801.16;;;8.96;46.82
61682;BME280;47577;43.610;25.010;2023-02-18T04:52:10;100800.22;;;8.97;46.31
61682;BME280;47577;43.610;25.010;2023-02-18T04:54:36;100792.13;;;9.05;46.84
61682;BME280;47577;43.610;25.010;2023-02-18T04:57:02;100795.53;;;9.10;46.07
61682;BME280;47577;43.610;25.010;2023-02-18T04:59:27;100801.53;;;9.20;45.91
61682;BME280;47577;43.610;25.010;2023-02-18T05:01:53;100783.81;;;9.22;47.48
61682;BME280;47577;43.610;25.010;2023-02-18T05:04:19;100769.72;;;9.18;46.56
61682;BME280;47577;43.610;25.010;2023-02-18T05:06:47;100763.41;;;9.24;45.91
61682;BME280;47577;43.610;25.010;2023-02-18T05:09:13;100762.47;;;9.26;46.06
61682;BME280;47577;43.610;25.010;2023-02-18T05:11:39;100771.25;;;9.30;45.53
61682;BME280;47577;43.610;25.010;2023-02-18T05:14:05;100766.63;;;9.38;46.44
61682;BME280;47577;43.610;25.010;2023-02-18T05:16:31;100767.19;;;9.52;44.62
61682;BME280;47577;43.610;25.010;2023-02-18T05:18:56;100765.94;;;9.67;45.31
61682;BME280;47577;43.610;25.010;2023-02-18T05:21:22;100750.50;;;9.83;44.37
61682;BME280;47577;43.610;25.010;2023-02-18T05:23:47;100764.25;;;9.99;42.37
61682;BME280;47577;43.610;25.010;2023-02-18T05:26:13;100777.19;;;10.13;43.69
61682;BME280;47577;43.610;25.010;2023-02-18T05:28:39;100775.31;;;10.17;42.23
61682;BME280;47577;43.610;25.010;2023-02-18T05:31:04;100764.53;;;10.23;43.49
61682;BME280;47577;43.610;25.010;2023-02-18T05:33:30;100748.88;;;10.12;42.61
61682;BME280;47577;43.610;25.010;2023-02-18T05:35:56;100761.91;;;10.21;44.06
61682;BME280;47577;43.610;25.010;2023-02-18T05:38:21;100746.59;;;10.31;42.41
61682;BME280;47577;43.610;25.010;2023-02-18T05:40:47;100749.97;;;10.38;42.29
61682;BME280;47577;43.610;25.010;2023-02-18T05:43:13;100726.13;;;10.35;42.33
61682;BME280;47577;43.610;25.010;2023-02-18T05:45:39;100748.84;;;10.48;41.82
61682;BME280;47577;43.610;25.010;2023-02-18T05:48:05;100738.97;;;10.52;42.73
61682;BME280;47577;43.610;25.010;2023-02-18T05:50:31;100746.06;;;10.53;41.53
61682;BME280;47577;43.610;25.010;2023-02-18T05:52:57;100771.81;;;10.49;42.29
61682;BME280;47577;43.610;25.010;2023-02-18T05:55:22;100736.50;;;10.46;41.88
61682;BME280;47577;43.610;25.010;2023-02-18T05:57:49;100743.31;;;10.54;43.19
61682;BME280;47577;43.610;25.010;2023-02-18T06:00:15;100741.56;;;10.55;42.65
61682;BME280;47577;43.610;25.010;2023-02-18T06:02:41;100765.34;;;10.59;42.05
61682;BME280;47577;43.610;25.010;2023-02-18T06:05:08;100760.88;;;10.61;43.04
61682;BME280;47577;43.610;25.010;2023-02-18T06:07:33;100752.81;;;10.65;42.52
61682;BME280;47577;43.610;25.010;2023-02-18T06:09:59;100767.03;;;10.62;42.82
61682;BME280;47577;43.610;25.010;2023-02-18T06:12:25;100773.06;;;10.69;41.86
61682;BME280;47577;43.610;25.010;2023-02-18T06:14:50;100781.81;;;10.74;42.44
61682;BME280;47577;43.610;25.010;2023-02-18T06:17:16;100767.81;;;10.66;42.30
61682;BME280;47577;43.610;25.010;2023-02-18T06:19:43;100775.63;;;10.72;42.12
61682;BME280;47577;43.610;25.010;2023-02-18T06:22:10;100792.38;;;10.75;41.76
61682;BME280;47577;43.610;25.010;2023-02-18T06:24:35;100780.81;;;10.76;42.90
61682;BME280;47577;43.610;25.010;2023-02-18T06:27:02;100786.00;;;10.81;41.86
61682;BME280;47577;43.610;25.010;2023-02-18T06:29:28;100783.59;;;10.72;42.37
61682;BME280;47577;43.610;25.010;2023-02-18T06:31:56;100789.47;;;10.85;42.82
61682;BME280;47577;43.610;25.010;2023-02-18T06:34:22;100784.66;;;10.97;42.68
61682;BME280;47577;43.610;25.010;2023-02-18T06:36:48;100783.84;;;10.95;42.02
61682;BME280;47577;43.610;25.010;2023-02-18T06:39:13;100793.38;;;11.03;42.41
61682;BME280;47577;43.610;25.010;2023-02-18T06:41:39;100791.31;;;11.12;42.23
61682;BME280;47577;43.610;25.010;2023-02-18T06:44:05;100785.84;;;11.17;42.21
61682;BME280;47577;43.610;25.010;2023-02-18T06:46:30;100788.38;;;11.22;41.73
61682;BME280;47577;43.610;25.010;2023-02-18T06:48:56;100773.84;;;11.32;41.57
61682;BME280;47577;43.610;25.010;2023-02-18T06:51:22;100776.19;;;11.43;41.68
61682;BME280;47577;43.610;25.010;2023-02-18T06:53:47;100779.94;;;11.37;41.99
61682;BME280;47577;43.610;25.010;2023-02-18T06:56:13;100777.94;;;11.44;41.81
61682;BME280;47577;43.610;25.010;2023-02-18T06:58:39;100772.25;;;11.55;41.67
61682;BME280;47577;43.610;25.010;2023-02-18T07:01:04;100777.59;;;11.55;41.41
61682;BME280;47577;43.610;25.010;2023-02-18T07:03:31;100773.09;;;11.57;41.48
61682;BME280;47577;43.610;25.010;2023-02-18T07:05:57;100774.81;;;11.58;41.79
61682;BME280;47577;43.610;25.010;2023-02-18T07:08:22;100751.75;;;11.58;41.39
61682;BME280;47577;43.610;25.010;2023-02-18T07:10:48;100765.06;;;11.58;41.88
61682;BME280;47577;43.610;25.010;2023-02-18T07:13:14;100773.63;;;11.68;41.05
61682;BME280;47577;43.610;25.010;2023-02-18T07:15:39;100776.34;;;11.66;40.75
61682;BME280;47577;43.610;25.010;2023-02-18T07:18:05;100767.38;;;11.69;41.34
61682;BME280;47577;43.610;25.010;2023-02-18T07:20:32;100769.69;;;11.80;41.28
61682;BME280;47577;43.610;25.010;2023-02-18T07:22:58;100766.66;;;11.92;40.38
61682;BME280;47577;43.610;25.010;2023-02-18T07:25:24;100765.41;;;12.02;40.34
61682;BME280;47577;43.610;25.010;2023-02-18T07:27:50;100762.66;;;12.05;40.34
61682;BME280;47577;43.610;25.010;2023-02-18T07:30:17;100761.34;;;12.17;40.54
61682;BME280;47577;43.610;25.010;2023-02-18T07:32:43;100764.88;;;12.18;39.27
61682;BME280;47577;43.610;25.010;2023-02-18T07:35:13;100749.47;;;12.26;39.29
61682;BME280;47577;43.610;25.010;2023-02-18T07:37:39;100763.59;;;12.30;39.68
61682;BME280;47577;43.610;25.010;2023-02-18T07:40:10;100755.59;;;12.30;39.68
61682;BME280;47577;43.610;25.010;2023-02-18T07:42:37;100766.75;;;12.41;39.08
61682;BME280;47577;43.610;25.010;2023-02-18T07:45:02;100769.13;;;12.49;38.91
61682;BME280;47577;43.610;25.010;2023-02-18T07:47:28;100772.69;;;12.49;39.56
61682;BME280;47577;43.610;25.010;2023-02-18T07:49:53;100757.16;;;12.60;39.18
61682;BME280;47577;43.610;25.010;2023-02-18T07:52:19;100757.84;;;12.66;38.42
61682;BME280;47577;43.610;25.010;2023-02-18T07:54:45;100757.53;;;12.75;38.49
61682;BME280;47577;43.610;25.010;2023-02-18T07:57:10;100762.00;;;12.98;39.35
61682;BME280;47577;43.610;25.010;2023-02-18T07:59:36;100739.50;;;13.04;38.73
61682;BME280;47577;43.610;25.010;2023-02-18T08:02:02;100747.53;;;13.04;38.76
61682;BME280;47577;43.610;25.010;2023-02-18T08:04:28;100757.50;;;13.22;38.29
61682;BME280;47577;43.610;25.010;2023-02-18T08:06:53;100762.38;;;13.34;38.57
61682;BME280;47577;43.610;25.010;2023-02-18T08:09:19;100759.78;;;13.55;38.64
61682;BME280;47577;43.610;25.010;2023-02-18T08:11:44;100790.69;;;13.62;37.83
61682;BME280;47577;43.610;25.010;2023-02-18T08:14:10;100761.13;;;13.65;38.35
61682;BME280;47577;43.610;25.010;2023-02-18T08:16:36;100777.47;;;13.80;37.16
61682;BME280;47577;43.610;25.010;2023-02-18T08:19:02;100783.84;;;13.77;37.34
61682;BME280;47577;43.610;25.010;2023-02-18T08:21:28;100772.97;;;13.82;38.29
61682;BME280;47577;43.610;25.010;2023-02-18T08:23:56;100813.41;;;13.95;36.66
61682;BME280;47577;43.610;25.010;2023-02-18T08:26:22;100781.41;;;14.14;38.12
61682;BME280;47577;43.610;25.010;2023-02-18T08:28:48;100770.94;;;14.30;38.26
61682;BME280;47577;43.610;25.010;2023-02-18T08:31:22;100782.16;;;14.58;36.55
61682;BME280;47577;43.610;25.010;2023-02-18T08:33:49;100795.28;;;14.44;36.41
61682;BME280;47577;43.610;25.010;2023-02-18T08:36:15;100774.81;;;14.43;36.09
61682;BME280;47577;43.610;25.010;2023-02-18T08:38:43;100772.16;;;14.22;36.32
61682;BME280;47577;43.610;25.010;2023-02-18T08:41:09;100804.63;;;14.13;36.24
61682;BME280;47577;43.610;25.010;2023-02-18T08:43:35;100781.16;;;14.20;35.73
61682;BME280;47577;43.610;25.010;2023-02-18T08:46:01;100786.28;;;14.04;37.22
61682;BME280;47577;43.610;25.010;2023-02-18T08:48:27;100804.44;;;14.18;36.03
61682;BME280;47577;43.610;25.010;2023-02-18T08:50:53;100793.88;;;14.35;37.75
61682;BME280;47577;43.610;25.010;2023-02-18T08:53:19;100807.38;;;14.32;36.67
61682;BME280;47577;43.610;25.010;2023-02-18T08:55:44;100796.81;;;14.29;36.93
61682;BME280;47577;43.610;25.010;2023-02-18T08:58:10;100812.50;;;14.16;36.64
61682;BME280;47577;43.610;25.010;2023-02-18T09:00:37;100806.69;;;14.06;37.17
61682;BME280;47577;43.610;25.010;2023-02-18T09:03:03;100805.06;;;14.02;37.56
61682;BME280;47577;43.610;25.010;2023-02-18T09:05:29;100794.91;;;13.90;37.08
61682;BME280;47577;43.610;25.010;2023-02-18T09:07:55;100810.09;;;13.88;38.37
61682;BME280;47577;43.610;25.010;2023-02-18T09:10:21;100806.13;;;13.98;37.19
61682;BME280;47577;43.610;25.010;2023-02-18T09:12:46;100804.69;;;13.89;38.09
61682;BME280;47577;43.610;25.010;2023-02-18T09:15:12;100808.75;;;14.00;37.31
61682;BME280;47577;43.610;25.010;2023-02-18T09:17:38;100795.81;;;13.89;38.06
61682;BME280;47577;43.610;25.010;2023-02-18T09:20:04;100817.56;;;14.02;37.18
61682;BME280;47577;43.610;25.010;2023-02-18T09:22:30;100809.84;;;13.94;36.91
61682;BME280;47577;43.610;25.010;2023-02-18T09:24:57;100815.94;;;13.98;38.41
61682;BME280;47577;43.610;25.010;2023-02-18T09:27:23;100797.38;;;13.95;38.43
61682;BME280;47577;43.610;25.010;2023-02-18T09:29:49;100816.13;;;14.15;36.52
61682;BME280;47577;43.610;25.010;2023-02-18T09:32:15;100782.63;;;14.06;37.95
61682;BME280;47577;43.610;25.010;2023-02-18T09:34:43;100798.41;;;14.13;37.87
61682;BME280;47577;43.610;25.010;2023-02-18T09:37:09;100783.84;;;14.20;36.89
61682;BME280;47577;43.610;25.010;2023-02-18T09:39:35;100784.09;;;14.14;36.90
61682;BME280;47577;43.610;25.010;2023-02-18T09:42:06;100769.72;;;14.16;37.74
61682;BME280;47577;43.610;25.010;2023-02-18T09:47:52;100777.88;;;14.13;36.78
61682;BME280;47577;43.610;25.010;2023-02-18T09:50:04;100767.69;;;14.01;37.13
61682;BME280;47577;43.610;25.010;2023-02-18T09:52:33;100762.94;;;14.07;37.45
61682;BME280;47577;43.610;25.010;2023-02-18T09:55:20;100778.44;;;13.99;38.04
61682;BME280;47577;43.610;25.010;2023-02-18T09:57:49;100774.41;;;14.11;37.30
61682;BME280;47577;43.610;25.010;2023-02-18T10:00:40;100767.63;;;14.02;37.93
61682;BME280;47577;43.610;25.010;2023-02-18T10:05:41;100778.03;;;14.31;37.32
61682;BME280;47577;43.610;25.010;2023-02-18T10:08:20;100781.63;;;14.30;38.84
61682;BME280;47577;43.610;25.010;2023-02-18T10:10:47;100773.41;;;14.34;38.60
61682;BME280;47577;43.610;25.010;2023-02-18T10:13:20;100788.59;;;14.34;37.86
61682;BME280;47577;43.610;25.010;2023-02-18T10:15:47;100753.53;;;14.40;38.19
61682;BME280;47577;43.610;25.010;2023-02-18T10:18:30;100761.38;;;14.24;39.57
61682;BME280;47577;43.610;25.010;2023-02-18T10:21:10;100746.59;;;14.36;37.73
61682;BME280;47577;43.610;25.010;2023-02-18T10:23:39;100756.38;;;14.37;38.46
61682;BME280;47577;43.610;25.010;2023-02-18T10:26:11;100751.81;;;14.39;39.82
61682;BME280;47577;43.610;25.010;2023-02-18T10:28:39;100739.31;;;14.39;39.42
61682;BME280;47577;43.610;25.010;2023-02-18T10:31:07;100740.84;;;14.24;38.13
61682;BME280;47577;43.610;25.010;2023-02-18T10:33:51;100729.22;;;14.25;40.79
61682;BME280;47577;43.610;25.010;2023-02-18T10:36:45;100738.84;;;14.30;39.56
61682;BME280;47577;43.610;25.010;2023-02-18T10:48:04;100694.03;;;14.35;38.60
61682;BME280;47577;43.610;25.010;2023-02-18T10:50:41;100688.28;;;14.44;38.60
61682;BME280;47577;43.610;25.010;2023-02-18T10:53:15;100682.00;;;14.24;38.09
61682;BME280;47577;43.610;25.010;2023-02-18T10:55:46;100719.00;;;14.35;39.40
61682;BME280;47577;43.610;25.010;2023-02-18T11:00:51;100716.19;;;14.18;39.16
61682;BME280;47577;43.610;25.010;2023-02-18T11:03:20;100718.00;;;14.17;38.59
61682;BME280;47577;43.610;25.010;2023-02-18T11:05:54;100724.16;;;14.19;38.23
61682;BME280;47577;43.610;25.010;2023-02-18T11:08:38;100725.06;;;14.18;39.03
61682;BME280;47577;43.610;25.010;2023-02-18T11:11:20;100714.69;;;14.11;40.56
61682;BME280;47577;43.610;25.010;2023-02-18T11:13:56;100713.31;;;14.22;40.54
61682;BME280;47577;43.610;25.010;2023-02-18T11:16:24;100708.03;;;14.21;40.13
61682;BME280;47577;43.610;25.010;2023-02-18T11:19:01;100697.88;;;14.08;39.24
61682;BME280;47577;43.610;25.010;2023-02-18T11:21:35;100721.66;;;14.15;39.44
61682;BME280;47577;43.610;25.010;2023-02-18T11:24:14;100704.63;;;14.17;39.35
61682;BME280;47577;43.610;25.010;2023-02-18T11:26:41;100690.25;;;14.20;39.37
61682;BME280;47577;43.610;25.010;2023-02-18T11:29:25;100701.53;;;14.26;39.04
61682;BME280;47577;43.610;25.010;2023-02-18T11:31:54;100718.59;;;14.24;40.97
61682;BME280;47577;43.610;25.010;2023-02-18T11:34:30;100705.88;;;14.29;40.69
61682;BME280;47577;43.610;25.010;2023-02-18T11:37:40;100699.50;;;14.52;40.21
61682;BME280;47577;43.610;25.010;2023-02-18T11:39:59;100701.16;;;14.55;40.06
61682;BME280;47577;43.610;25.010;2023-02-18T11:42:25;100682.38;;;14.56;39.87
61682;BME280;47577;43.610;25.010;2023-02-18T11:44:59;100707.50;;;14.73;40.74
61682;BME280;47577;43.610;25.010;2023-02-18T11:47:35;100694.13;;;14.73;39.56
61682;BME280;47577;43.610;25.010;2023-02-18T11:52:47;100678.88;;;14.75;40.78
61682;BME280;47577;43.610;25.010;2023-02-18T11:57:58;100671.19;;;14.67;40.28
61682;BME280;47577;43.610;25.010;2023-02-18T12:00:43;100685.53;;;14.66;38.71
61682;BME280;47577;43.610;25.010;2023-02-18T12:05:44;100676.34;;;14.51;39.48
61682;BME280;47577;43.610;25.010;2023-02-18T12:08:26;100645.25;;;14.49;39.91
61682;BME280;47577;43.610;25.010;2023-02-18T12:10:53;100660.97;;;14.56;39.80
61682;BME280;47577;43.610;25.010;2023-02-18T12:13:27;100645.53;;;14.63;40.08
61682;BME280;47577;43.610;25.010;2023-02-18T12:26:57;100620.56;;;14.62;40.47
61682;BME280;47577;43.610;25.010;2023-02-18T12:33:28;100635.59;;;14.65;41.21
61682;BME280;47577;43.610;25.010;2023-02-18T12:46:20;100627.25;;;14.52;43.24
61682;BME280;47577;43.610;25.010;2023-02-18T12:49:06;100631.88;;;14.49;45.03
61682;BME280;47577;43.610;25.010;2023-02-18T13:00:00;100636.97;;;14.74;45.07
61682;BME280;47577;43.610;25.010;2023-02-18T13:16:30;100643.56;;;14.86;45.00
61682;BME280;47577;43.610;25.010;2023-02-18T13:21:36;100632.31;;;14.96;44.15
61682;BME280;47577;43.610;25.010;2023-02-18T13:24:14;100644.34;;;14.88;43.75
61682;BME280;47577;43.610;25.010;2023-02-18T13:26:45;100637.81;;;14.93;44.10
61682;BME280;47577;43.610;25.010;2023-02-18T13:34:30;100635.91;;;14.97;43.76
61682;BME280;47577;43.610;25.010;2023-02-18T13:37:26;100629.00;;;14.91;43.69
61682;BME280;47577;43.610;25.010;2023-02-18T13:39:57;100622.00;;;14.89;44.54
61682;BME280;47577;43.610;25.010;2023-02-18T13:42:31;100621.63;;;14.96;43.54
61682;BME280;47577;43.610;25.010;2023-02-18T13:47:46;100626.97;;;14.96;44.57
61682;BME280;47577;43.610;25.010;2023-02-18T13:53:01;100631.75;;;14.90;44.35
61682;BME280;47577;43.610;25.010;2023-02-18T13:56:01;100621.06;;;14.90;44.01
61682;BME280;47577;43.610;25.010;2023-02-18T14:01:18;100639.44;;;14.97;43.12
61682;BME280;47577;43.610;25.010;2023-02-18T14:06:26;100603.03;;;14.93;43.53
61682;BME280;47577;43.610;25.010;2023-02-18T14:12:34;100604.31;;;15.04;43.83
61682;BME280;47577;43.610;25.010;2023-02-18T14:26:04;100628.72;;;14.97;42.85
61682;BME280;47577;43.610;25.010;2023-02-18T14:28:35;100630.75;;;14.92;42.58
61682;BME280;47577;43.610;25.010;2023-02-18T14:33:39;100613.97;;;14.89;43.79
61682;BME280;47577;43.610;25.010;2023-02-18T14:44:41;100630.19;;;14.67;43.94
61682;BME280;47577;43.610;25.010;2023-02-18T14:50:00;100620.41;;;14.66;44.17
61682;BME280;47577;43.610;25.010;2023-02-18T14:52:36;100618.56;;;14.68;43.49
61682;BME280;47577;43.610;25.010;2023-02-18T14:55:05;100607.19;;;14.62;43.08
61682;BME280;47577;43.610;25.010;2023-02-18T14:57:49;100610.38;;;14.71;42.51
61682;BME280;47577;43.610;25.010;2023-02-18T15:00:21;100600.47;;;14.73;42.72
61682;BME280;47577;43.610;25.010;2023-02-18T15:02:54;100605.19;;;14.68;42.83
61682;BME280;47577;43.610;25.010;2023-02-18T15:05:25;100600.03;;;14.63;43.51
61682;BME280;47577;43.610;25.010;2023-02-18T15:10:32;100587.25;;;14.49;41.57
61682;BME280;47577;43.610;25.010;2023-02-18T15:13:01;100595.28;;;14.49;41.66
61682;BME280;47577;43.610;25.010;2023-02-18T15:15:28;100580.47;;;14.42;42.29
61682;BME280;47577;43.610;25.010;2023-02-18T15:17:54;100582.50;;;14.37;42.42
61682;BME280;47577;43.610;25.010;2023-02-18T15:20:20;100575.47;;;14.34;41.94
61682;BME280;47577;43.610;25.010;2023-02-18T15:22:47;100585.41;;;14.32;42.29
61682;BME280;47577;43.610;25.010;2023-02-18T15:25:13;100579.41;;;14.27;42.48
61682;BME280;47577;43.610;25.010;2023-02-18T15:27:42;100572.16;;;14.29;42.10
61682;BME280;47577;43.610;25.010;2023-02-18T15:30:24;100569.84;;;14.21;43.76
61682;BME280;47577;43.610;25.010;2023-02-18T15:32:55;100583.28;;;14.20;43.97
61682;BME280;47577;43.610;25.010;2023-02-18T15:35:22;100549.69;;;14.14;44.81
61682;BME280;47577;43.610;25.010;2023-02-18T15:37:55;100576.09;;;14.20;43.73
61682;BME280;47577;43.610;25.010;2023-02-18T15:40:24;100556.41;;;14.23;44.10